createdAt,value
2019-05-23T00:00:32.494Z,91.10
2019-05-23T00:05:53.208Z,92.90
2019-05-23T00:11:22.288Z,92.50
2019-05-23T00:16:28.480Z,92.60
2019-05-23T00:21:34.920Z,94.30
2019-05-23T00:26:41.377Z,92.10
2019-05-23T00:31:50.692Z,92.90
2019-05-23T00:37:02.645Z,93.00
2019-05-23T00:42:07.899Z,92.70
2019-05-23T00:47:13.657Z,91.70
2019-05-23T00:52:18.059Z,92.70
2019-05-23T00:57:24.557Z,94.10
2019-05-23T01:02:32.161Z,92.70
2019-05-23T01:07:38.444Z,93.90
2019-05-23T01:12:47.589Z,93.30
2019-05-23T01:17:53.766Z,93.10
2019-05-23T01:23:18.617Z,93.00
2019-05-23T01:28:24.283Z,92.20
2019-05-23T01:33:30.898Z,91.80
2019-05-23T01:38:39.046Z,93.50
2019-05-23T01:43:44.089Z,92.30
2019-05-23T01:48:48.805Z,91.90
2019-05-23T01:53:54.836Z,92.00
2019-05-23T01:58:59.134Z,92.80
2019-05-23T02:04:04.328Z,93.50
2019-05-23T02:09:09.206Z,92.30
2019-05-23T02:14:15.051Z,91.80
2019-05-23T02:19:22.036Z,91.70
2019-05-23T02:24:27.743Z,92.00
2019-05-23T02:29:32.307Z,92.00
2019-05-23T02:34:37.786Z,93.50
2019-05-23T02:39:54.413Z,94.60
2019-05-23T02:44:59.492Z,94.00
2019-05-23T02:50:07.433Z,94.00
2019-05-23T02:55:22.523Z,94.10
2019-05-23T03:00:54.825Z,94.00
2019-05-23T03:05:57.594Z,93.00
2019-05-23T03:11:19.005Z,92.60
2019-05-23T03:16:35.267Z,92.80
2019-05-23T03:21:41.521Z,93.40
2019-05-23T03:27:20.505Z,93.10
2019-05-23T03:32:38.009Z,93.90
2019-05-23T03:37:42.454Z,93.00
2019-05-23T03:42:49.895Z,93.60
2019-05-23T03:48:01.292Z,93.40
2019-05-23T03:53:07.664Z,93.00
2019-05-23T03:58:14.009Z,93.50
2019-05-23T04:03:19.403Z,94.80
2019-05-23T04:08:25.858Z,94.00
2019-05-23T04:13:31.427Z,94.40
2019-05-23T04:18:38.769Z,93.50
2019-05-23T04:23:43.068Z,93.30
2019-05-23T04:28:47.673Z,93.70
2019-05-23T04:33:50.810Z,93.60
2019-05-23T04:38:55.257Z,93.70
2019-05-23T04:43:59.569Z,93.90
2019-05-23T04:49:05.480Z,92.70
2019-05-23T04:54:11.557Z,91.60
2019-05-23T04:59:17.110Z,91.80
2019-05-23T05:04:23.179Z,90.60
2019-05-23T05:09:43.313Z,88.70
2019-05-23T05:14:47.672Z,87.90
2019-05-23T05:19:52.203Z,87.50
2019-05-23T05:24:59.148Z,88.00
2019-05-23T05:30:03.928Z,85.90
2019-05-23T05:35:11.502Z,85.00
2019-05-23T05:40:15.925Z,81.20
2019-05-23T05:45:20.586Z,76.30
2019-05-23T05:50:26.268Z,76.50
2019-05-23T05:55:30.738Z,74.30
2019-05-23T06:00:50.115Z,71.70
2019-05-23T06:06:11.983Z,72.70
2019-05-23T06:11:18.781Z,74.20
2019-05-23T06:16:23.286Z,74.00
2019-05-23T06:21:30.801Z,73.80
2019-05-23T06:26:35.821Z,69.80
2019-05-23T06:31:40.812Z,66.60
2019-05-23T06:36:46.496Z,65.10
2019-05-23T06:41:50.817Z,64.80
2019-05-23T06:46:55.219Z,62.90
2019-05-23T06:51:59.293Z,60.80
2019-05-23T06:57:03.922Z,58.80
2019-05-23T07:02:07.380Z,57.30
2019-05-23T07:07:13.051Z,57.50
2019-05-23T07:12:17.387Z,57.30
2019-05-23T07:17:22.309Z,58.20
2019-05-23T07:22:29.347Z,54.60
2019-05-23T07:27:36.188Z,51.90
2019-05-23T07:32:40.366Z,49.50
2019-05-23T07:37:44.547Z,49.80
2019-05-23T07:42:49.319Z,49.40
2019-05-23T07:47:56.728Z,52.20
2019-05-23T07:53:00.885Z,49.90
2019-05-23T07:58:06.972Z,49.70
2019-05-23T08:03:13.749Z,49.90
2019-05-23T08:08:21.962Z,50.50
2019-05-23T08:13:28.618Z,51.10
2019-05-23T08:18:32.743Z,51.70
2019-05-23T08:23:36.871Z,52.20
2019-05-23T08:28:56.645Z,45.60
2019-05-23T08:33:46.905Z,45.40
2019-05-23T08:38:50.990Z,41.10
2019-05-23T08:43:58.294Z,47.10
2019-05-23T08:49:03.465Z,43.90
2019-05-23T08:54:10.705Z,43.00
2019-05-23T08:59:16.084Z,46.80
2019-05-23T09:04:21.377Z,44.10
2019-05-23T09:09:30.454Z,46.00
2019-05-23T09:14:32.143Z,46.80
2019-05-23T09:19:35.326Z,45.70
2019-05-23T09:24:39.456Z,44.40
2019-05-23T09:29:44.070Z,43.30
2019-05-23T09:34:48.634Z,43.30
2019-05-23T09:39:55.543Z,42.30
2019-05-23T09:45:01.286Z,44.70
2019-05-23T09:50:07.155Z,41.70
2019-05-23T09:55:11.936Z,44.30
2019-05-23T10:00:19.516Z,42.60
2019-05-23T10:05:41.008Z,42.50
2019-05-23T10:10:32.403Z,44.90
2019-05-23T10:15:46.347Z,39.70
2019-05-23T10:20:50.676Z,40.30
2019-05-23T10:25:55.882Z,36.90
2019-05-23T10:31:00.075Z,40.30
2019-05-23T10:36:21.705Z,40.90
2019-05-23T10:41:29.162Z,38.70
2019-05-23T10:46:33.296Z,41.80
2019-05-23T10:51:37.628Z,39.50
2019-05-23T10:56:40.751Z,39.00
2019-05-23T11:01:45.681Z,41.80
2019-05-23T11:06:52.255Z,40.10
2019-05-23T11:11:58.146Z,42.90
2019-05-23T11:17:02.666Z,40.40
2019-05-23T11:22:07.887Z,44.10
2019-05-23T11:27:12.047Z,40.90
2019-05-23T11:32:20.438Z,42.70
2019-05-23T11:37:25.778Z,42.40
2019-05-23T11:42:31.637Z,43.50
2019-05-23T11:47:37.640Z,43.00
2019-05-23T11:52:41.938Z,40.70
2019-05-23T11:57:46.462Z,41.40
2019-05-23T12:02:51.034Z,43.20
2019-05-23T12:07:55.216Z,42.90
2019-05-23T12:12:59.727Z,43.80
2019-05-23T12:18:05.347Z,42.60
2019-05-23T12:23:10.982Z,46.60
2019-05-23T12:28:15.462Z,44.90
2019-05-23T12:33:19.705Z,43.70
2019-05-23T12:38:26.250Z,44.20
2019-05-23T12:43:30.781Z,46.30
2019-05-23T12:48:45.287Z,45.80
2019-05-23T12:53:52.222Z,42.90
2019-05-23T12:58:59.144Z,43.70
2019-05-23T13:04:04.649Z,44.00
2019-05-23T13:09:09.940Z,45.30
2019-05-23T13:14:14.940Z,46.40
2019-05-23T13:19:19.176Z,40.00
2019-05-23T13:24:22.629Z,47.30
2019-05-23T13:29:28.799Z,47.10
2019-05-23T13:34:34.564Z,47.20
2019-05-23T13:39:42.076Z,45.00
2019-05-23T13:44:48.875Z,44.60
2019-05-23T13:49:55.395Z,44.80
2019-05-23T13:55:01.201Z,43.90
2019-05-23T14:00:06.536Z,43.60
2019-05-23T14:05:12.548Z,44.50
2019-05-23T14:10:18.581Z,44.60
2019-05-23T14:15:31.860Z,43.20
2019-05-23T14:20:36.408Z,44.80
2019-05-23T14:25:44.765Z,44.20
2019-05-23T14:31:14.535Z,43.90
2019-05-23T14:36:36.683Z,43.20
2019-05-23T14:41:49.542Z,41.80
2019-05-23T14:47:19.491Z,44.70
2019-05-23T14:52:29.307Z,43.60
2019-05-23T14:57:37.819Z,46.30
2019-05-23T15:02:45.140Z,44.80
2019-05-23T15:07:52.970Z,43.30
2019-05-23T15:12:57.992Z,45.40
2019-05-23T15:18:02.216Z,45.30
2019-05-23T15:23:06.378Z,44.20
2019-05-23T15:28:10.937Z,44.20
2019-05-23T15:33:18.395Z,45.30
2019-05-23T15:38:35.509Z,44.70
2019-05-23T15:43:46.596Z,46.20
2019-05-23T15:48:51.290Z,46.50
2019-05-23T15:54:02.174Z,47.80
2019-05-23T15:59:22.973Z,47.90
2019-05-23T16:04:27.696Z,44.50
2019-05-23T16:09:36.043Z,46.00
2019-05-23T16:14:42.613Z,45.40
2019-05-23T16:19:50.649Z,46.30
2019-05-23T16:24:56.376Z,46.20
2019-05-23T16:30:00.826Z,47.10
2019-05-23T16:35:07.369Z,47.90
2019-05-23T16:40:12.262Z,47.60
2019-05-23T16:45:36.584Z,47.20
2019-05-23T16:50:40.754Z,49.10
2019-05-23T16:55:53.775Z,48.10
2019-05-23T17:01:24.068Z,48.30
2019-05-23T17:06:36.578Z,49.00
2019-05-23T17:11:58.567Z,47.90
2019-05-23T17:17:36.442Z,49.10
2019-05-23T17:22:45.813Z,49.70
2019-05-23T17:28:11.794Z,50.10
2019-05-23T17:33:17.999Z,50.20
2019-05-23T17:38:22.777Z,50.80
2019-05-23T17:43:27.151Z,50.30
2019-05-23T17:48:31.652Z,52.30
2019-05-23T17:53:35.788Z,52.50
2019-05-23T17:58:40.540Z,53.80
2019-05-23T18:03:44.901Z,55.00
2019-05-23T18:08:50.155Z,55.50
2019-05-23T18:13:57.129Z,56.30
2019-05-23T18:19:02.605Z,57.40
2019-05-23T18:24:08.482Z,59.30
2019-05-23T18:29:12.657Z,59.20
2019-05-23T18:34:17.763Z,60.60
2019-05-23T18:39:22.805Z,62.50
2019-05-23T18:44:27.518Z,62.90
2019-05-23T18:49:31.732Z,63.70
2019-05-23T18:54:35.914Z,65.70
2019-05-23T18:59:40.313Z,68.00
2019-05-23T19:04:47.494Z,67.90
2019-05-23T19:09:51.328Z,67.20
2019-05-23T19:14:55.327Z,70.20
2019-05-23T19:20:00.379Z,69.30
2019-05-23T19:25:06.749Z,69.60
2019-05-23T19:30:12.136Z,72.60
2019-05-23T19:35:16.252Z,71.20
2019-05-23T19:40:24.153Z,71.60
2019-05-23T19:45:31.797Z,74.30
2019-05-23T19:50:37.766Z,73.20
2019-05-23T19:55:42.499Z,73.40
2019-05-23T20:00:47.981Z,72.40
2019-05-23T20:05:53.311Z,76.20
2019-05-23T20:10:57.315Z,74.80
2019-05-23T20:16:01.835Z,75.80
2019-05-23T20:21:06.051Z,74.50
2019-05-23T20:26:13.087Z,74.90
2019-05-23T20:31:18.418Z,77.10
2019-05-23T20:36:22.583Z,77.80
2019-05-23T20:41:27.713Z,76.90
2019-05-23T20:46:33.598Z,78.30
2019-05-23T20:51:38.500Z,77.10
2019-05-23T20:56:45.651Z,77.70
2019-05-23T21:01:50.929Z,77.80
2019-05-23T21:06:55.075Z,79.50
2019-05-23T21:11:59.309Z,81.30
2019-05-23T21:17:03.790Z,81.90
2019-05-23T21:22:11.334Z,82.10
2019-05-23T21:27:15.813Z,81.00
2019-05-23T21:32:20.056Z,79.90
2019-05-23T21:37:24.172Z,81.00
2019-05-23T21:42:28.285Z,79.20
2019-05-23T21:47:32.462Z,78.60
2019-05-23T21:52:36.906Z,78.90
2019-05-23T21:57:41.331Z,79.80
2019-05-23T22:02:47.200Z,80.50
2019-05-23T22:07:52.349Z,80.50
2019-05-23T22:13:04.386Z,81.20
2019-05-23T22:18:05.987Z,83.40
2019-05-23T22:23:10.084Z,83.10
2019-05-23T22:28:14.160Z,84.70
2019-05-23T22:33:20.582Z,89.40
2019-05-23T22:38:24.805Z,84.00
2019-05-23T22:43:28.977Z,82.70
2019-05-23T22:48:33.047Z,83.70
2019-05-23T22:53:37.309Z,83.00
2019-05-23T22:58:41.399Z,85.40
2019-05-23T23:03:45.649Z,84.10
2019-05-23T23:08:50.128Z,86.80
2019-05-23T23:13:54.298Z,87.30
2019-05-23T23:18:58.541Z,85.40
2019-05-23T23:24:03.147Z,89.30
2019-05-23T23:29:07.130Z,88.30
2019-05-23T23:34:11.744Z,89.30
2019-05-23T23:39:17.641Z,86.20
2019-05-23T23:44:23.009Z,86.10
2019-05-23T23:49:44.856Z,87.00
2019-05-23T23:55:07.869Z,88.50
